General Aviation Weather

Text Reports

Enter one or more of the following location identifiers separated by a space:

Zip Code, Four-Character ICAO or Three-Character IATA airport codes.

METAR - Aviation Routine Weather Report
K19A - Jefferson, Georgia
Updated at 12:15 PM GMT on February 08, 2016 (7:15 AM EST):
METAR K19A 081215Z AUTO 25005KT 10SM SCT120 03/M03 A2983 RMK AO2
TAF - Terminal Area Forecast
K19A - Jefferson, Georgia
Updated at 12:15 PM GMT on February 08, 2016 (7:15 AM EST):
No TAF is currently available for this location.
Decoded:
No decoded TAF is available.
PIREP - Pilot Weather Report
K19A - Jefferson, Georgia
Updated at 12:15 PM GMT on February 08, 2016 (7:15 AM EST):
No PIREP is currently available for this location.
AIRMET - Airmens Meteorological Information
K19A - Jefferson, Georgia
Updated at 12:15 PM GMT on February 08, 2016 (7:15 AM EST):
No AIRMET is currently available for this location.
SIGMET - Significant Meteorological Information
K19A - Jefferson, Georgia
Updated at 12:15 PM GMT on February 08, 2016 (7:15 AM EST):
No SIGMET is currently available for this location.
NOTAM - Notice to Airmen
K19A - Jefferson, Georgia
Updated at 12:15 PM GMT on February 08, 2016 (7:15 AM EST):
No NOTAM is currently available for this location.
Forecast Area
K19A - Jefferson, Georgia
Updated at 12:15 PM GMT on February 08, 2016 (7:15 AM EST):
No NOTAM is currently available for this location.
Aviation Weather Maps